sensor_id;sensor_type;location;lat;lon;timestamp;temperature;humidity
67748;HTU21D;54543;50.712;6.070;2024-03-07T00:01:27;5.36;118.99
67748;HTU21D;54543;50.712;6.070;2024-03-07T00:03:52;5.30;118.99
67748;HTU21D;54543;50.712;6.070;2024-03-07T00:06:18;5.25;118.99
67748;HTU21D;54543;50.712;6.070;2024-03-07T00:08:43;5.21;118.99
67748;HTU21D;54543;50.712;6.070;2024-03-07T00:11:09;5.15;118.99
67748;HTU21D;54543;50.712;6.070;2024-03-07T00:13:35;5.11;118.99
67748;HTU21D;54543;50.712;6.070;2024-03-07T00:16:01;5.06;118.99
67748;HTU21D;54543;50.712;6.070;2024-03-07T00:18:27;5.07;118.99
67748;HTU21D;54543;50.712;6.070;2024-03-07T00:20:52;5.06;118.99
67748;HTU21D;54543;50.712;6.070;2024-03-07T00:23:20;5.05;118.99
67748;HTU21D;54543;50.712;6.070;2024-03-07T00:25:46;5.05;118.99
67748;HTU21D;54543;50.712;6.070;2024-03-07T00:28:15;5.08;118.99
67748;HTU21D;54543;50.712;6.070;2024-03-07T00:30:43;5.08;118.99
67748;HTU21D;54543;50.712;6.070;2024-03-07T00:33:11;5.06;118.99
67748;HTU21D;54543;50.712;6.070;2024-03-07T00:35:37;5.06;118.99
67748;HTU21D;54543;50.712;6.070;2024-03-07T00:38:03;5.04;118.99
67748;HTU21D;54543;50.712;6.070;2024-03-07T00:40:29;5.00;118.99
67748;HTU21D;54543;50.712;6.070;2024-03-07T00:42:55;4.95;118.99
67748;HTU21D;54543;50.712;6.070;2024-03-07T00:45:20;4.91;118.99
67748;HTU21D;54543;50.712;6.070;2024-03-07T00:47:46;4.87;118.99
67748;HTU21D;54543;50.712;6.070;2024-03-07T00:50:14;4.84;118.99
67748;HTU21D;54543;50.712;6.070;2024-03-07T00:52:39;4.80;118.99
67748;HTU21D;54543;50.712;6.070;2024-03-07T00:55:06;4.79;118.99
67748;HTU21D;54543;50.712;6.070;2024-03-07T00:57:34;4.79;118.99
67748;HTU21D;54543;50.712;6.070;2024-03-07T00:59:59;4.76;118.99
67748;HTU21D;54543;50.712;6.070;2024-03-07T01:02:26;4.73;118.99
67748;HTU21D;54543;50.712;6.070;2024-03-07T01:04:51;4.68;118.99
67748;HTU21D;54543;50.712;6.070;2024-03-07T01:07:18;4.64;118.99
67748;HTU21D;54543;50.712;6.070;2024-03-07T01:09:44;4.59;118.99
67748;HTU21D;54543;50.712;6.070;2024-03-07T01:12:10;4.54;118.99
67748;HTU21D;54543;50.712;6.070;2024-03-07T01:14:36;4.50;118.99
67748;HTU21D;54543;50.712;6.070;2024-03-07T01:17:02;4.46;118.99
67748;HTU21D;54543;50.712;6.070;2024-03-07T01:19:27;4.42;118.99
67748;HTU21D;54543;50.712;6.070;2024-03-07T01:21:53;4.37;118.99
67748;HTU21D;54543;50.712;6.070;2024-03-07T01:24:18;4.34;118.99
67748;HTU21D;54543;50.712;6.070;2024-03-07T01:26:46;4.30;118.99
67748;HTU21D;54543;50.712;6.070;2024-03-07T01:29:11;4.24;118.99
67748;HTU21D;54543;50.712;6.070;2024-03-07T01:31:37;4.19;118.99
67748;HTU21D;54543;50.712;6.070;2024-03-07T01:34:02;4.15;118.99
67748;HTU21D;54543;50.712;6.070;2024-03-07T01:36:28;4.09;118.99
67748;HTU21D;54543;50.712;6.070;2024-03-07T01:38:55;4.06;118.99
67748;HTU21D;54543;50.712;6.070;2024-03-07T01:41:21;4.02;118.99
67748;HTU21D;54543;50.712;6.070;2024-03-07T01:43:46;3.98;118.99
67748;HTU21D;54543;50.712;6.070;2024-03-07T01:46:12;3.94;118.99
67748;HTU21D;54543;50.712;6.070;2024-03-07T01:48:38;3.90;118.99
67748;HTU21D;54543;50.712;6.070;2024-03-07T01:51:05;3.88;118.99
67748;HTU21D;54543;50.712;6.070;2024-03-07T01:53:32;3.86;118.99
67748;HTU21D;54543;50.712;6.070;2024-03-07T01:56:02;3.85;118.99
67748;HTU21D;54543;50.712;6.070;2024-03-07T01:58:30;3.84;118.99
67748;HTU21D;54543;50.712;6.070;2024-03-07T02:00:56;3.82;118.99
67748;HTU21D;54543;50.712;6.070;2024-03-07T02:03:23;3.80;118.99
67748;HTU21D;54543;50.712;6.070;2024-03-07T02:05:49;3.79;118.99
67748;HTU21D;54543;50.712;6.070;2024-03-07T02:08:14;3.77;118.99
67748;HTU21D;54543;50.712;6.070;2024-03-07T02:10:41;3.76;118.99
67748;HTU21D;54543;50.712;6.070;2024-03-07T02:13:06;3.76;118.99
67748;HTU21D;54543;50.712;6.070;2024-03-07T02:15:32;3.76;118.99
67748;HTU21D;54543;50.712;6.070;2024-03-07T02:17:58;3.74;118.99
67748;HTU21D;54543;50.712;6.070;2024-03-07T02:20:23;3.73;118.99
67748;HTU21D;54543;50.712;6.070;2024-03-07T02:22:49;3.73;118.99
67748;HTU21D;54543;50.712;6.070;2024-03-07T02:25:16;3.70;118.99
67748;HTU21D;54543;50.712;6.070;2024-03-07T02:27:42;3.68;118.99
67748;HTU21D;54543;50.712;6.070;2024-03-07T02:30:08;3.65;118.99
67748;HTU21D;54543;50.712;6.070;2024-03-07T02:32:37;3.63;118.99
67748;HTU21D;54543;50.712;6.070;2024-03-07T02:35:06;3.62;118.99
67748;HTU21D;54543;50.712;6.070;2024-03-07T02:37:32;3.60;118.99
67748;HTU21D;54543;50.712;6.070;2024-03-07T02:39:58;3.57;118.99
67748;HTU21D;54543;50.712;6.070;2024-03-07T02:42:24;3.50;118.99
67748;HTU21D;54543;50.712;6.070;2024-03-07T02:44:49;3.42;118.99
67748;HTU21D;54543;50.712;6.070;2024-03-07T02:47:15;3.35;118.99
67748;HTU21D;54543;50.712;6.070;2024-03-07T02:49:40;3.29;118.99
67748;HTU21D;54543;50.712;6.070;2024-03-07T02:52:06;3.25;118.99
67748;HTU21D;54543;50.712;6.070;2024-03-07T02:54:34;3.21;118.99
67748;HTU21D;54543;50.712;6.070;2024-03-07T02:57:00;3.20;118.99
67748;HTU21D;54543;50.712;6.070;2024-03-07T02:59:25;3.16;118.99
67748;HTU21D;54543;50.712;6.070;2024-03-07T03:01:51;3.12;118.99
67748;HTU21D;54543;50.712;6.070;2024-03-07T03:04:17;3.06;118.99
67748;HTU21D;54543;50.712;6.070;2024-03-07T03:06:43;3.03;118.99
67748;HTU21D;54543;50.712;6.070;2024-03-07T03:09:09;3.00;118.99
67748;HTU21D;54543;50.712;6.070;2024-03-07T03:11:39;2.98;118.99
67748;HTU21D;54543;50.712;6.070;2024-03-07T03:14:05;2.98;118.99
67748;HTU21D;54543;50.712;6.070;2024-03-07T03:16:30;2.98;118.99
67748;HTU21D;54543;50.712;6.070;2024-03-07T03:18:56;3.00;118.99
67748;HTU21D;54543;50.712;6.070;2024-03-07T03:21:24;3.02;118.99
67748;HTU21D;54543;50.712;6.070;2024-03-07T03:23:50;3.04;118.99
67748;HTU21D;54543;50.712;6.070;2024-03-07T03:26:16;3.05;118.99
67748;HTU21D;54543;50.712;6.070;2024-03-07T03:28:41;3.08;118.99
67748;HTU21D;54543;50.712;6.070;2024-03-07T03:31:07;3.10;118.99
67748;HTU21D;54543;50.712;6.070;2024-03-07T03:33:34;3.13;118.99
67748;HTU21D;54543;50.712;6.070;2024-03-07T03:36:00;3.16;118.99
67748;HTU21D;54543;50.712;6.070;2024-03-07T03:38:27;3.18;118.99
67748;HTU21D;54543;50.712;6.070;2024-03-07T03:40:52;3.20;118.99
67748;HTU21D;54543;50.712;6.070;2024-03-07T03:43:18;3.25;118.99
67748;HTU21D;54543;50.712;6.070;2024-03-07T03:45:44;3.29;118.99
67748;HTU21D;54543;50.712;6.070;2024-03-07T03:48:10;3.32;118.99
67748;HTU21D;54543;50.712;6.070;2024-03-07T03:50:36;3.34;118.99
67748;HTU21D;54543;50.712;6.070;2024-03-07T03:53:02;3.38;118.99
67748;HTU21D;54543;50.712;6.070;2024-03-07T03:55:29;3.39;118.99
67748;HTU21D;54543;50.712;6.070;2024-03-07T03:57:54;3.39;118.99
67748;HTU21D;54543;50.712;6.070;2024-03-07T04:00:21;3.38;118.99
67748;HTU21D;54543;50.712;6.070;2024-03-07T04:02:48;3.38;118.99
67748;HTU21D;54543;50.712;6.070;2024-03-07T04:05:15;3.40;118.99
67748;HTU21D;54543;50.712;6.070;2024-03-07T04:07:42;3.40;118.99
67748;HTU21D;54543;50.712;6.070;2024-03-07T04:10:08;3.41;118.99
67748;HTU21D;54543;50.712;6.070;2024-03-07T04:12:39;3.40;118.99
67748;HTU21D;54543;50.712;6.070;2024-03-07T04:15:10;3.38;118.99
67748;HTU21D;54543;50.712;6.070;2024-03-07T04:17:37;3.38;118.99
67748;HTU21D;54543;50.712;6.070;2024-03-07T04:20:04;3.38;118.99
67748;HTU21D;54543;50.712;6.070;2024-03-07T04:22:34;3.35;118.99
67748;HTU21D;54543;50.712;6.070;2024-03-07T04:25:01;3.36;118.99
67748;HTU21D;54543;50.712;6.070;2024-03-07T04:27:27;3.36;118.99
67748;HTU21D;54543;50.712;6.070;2024-03-07T04:29:53;3.38;118.99
67748;HTU21D;54543;50.712;6.070;2024-03-07T04:32:18;3.39;118.99
67748;HTU21D;54543;50.712;6.070;2024-03-07T04:34:44;3.44;118.99
67748;HTU21D;54543;50.712;6.070;2024-03-07T04:37:10;3.50;118.99
67748;HTU21D;54543;50.712;6.070;2024-03-07T04:39:35;3.56;118.99
67748;HTU21D;54543;50.712;6.070;2024-03-07T04:42:05;3.59;118.99
67748;HTU21D;54543;50.712;6.070;2024-03-07T04:44:35;3.62;118.99
67748;HTU21D;54543;50.712;6.070;2024-03-07T04:47:05;3.63;118.99
67748;HTU21D;54543;50.712;6.070;2024-03-07T04:49:32;3.64;118.99
67748;HTU21D;54543;50.712;6.070;2024-03-07T04:52:00;3.64;118.99
67748;HTU21D;54543;50.712;6.070;2024-03-07T04:54:27;3.67;118.99
67748;HTU21D;54543;50.712;6.070;2024-03-07T04:56:53;3.68;118.99
67748;HTU21D;54543;50.712;6.070;2024-03-07T04:59:20;3.69;118.99
67748;HTU21D;54543;50.712;6.070;2024-03-07T05:01:47;3.68;118.99
67748;HTU21D;54543;50.712;6.070;2024-03-07T05:04:13;3.69;118.99
67748;HTU21D;54543;50.712;6.070;2024-03-07T05:06:39;3.69;118.99
67748;HTU21D;54543;50.712;6.070;2024-03-07T05:09:07;3.68;118.99
67748;HTU21D;54543;50.712;6.070;2024-03-07T05:11:34;3.67;118.99
67748;HTU21D;54543;50.712;6.070;2024-03-07T05:14:00;3.64;118.99
67748;HTU21D;54543;50.712;6.070;2024-03-07T05:16:30;3.63;118.99
67748;HTU21D;54543;50.712;6.070;2024-03-07T05:18:57;3.63;118.99
67748;HTU21D;54543;50.712;6.070;2024-03-07T05:21:25;3.67;118.99
67748;HTU21D;54543;50.712;6.070;2024-03-07T05:24:08;3.68;118.99
67748;HTU21D;54543;50.712;6.070;2024-03-07T05:26:35;3.68;118.99
67748;HTU21D;54543;50.712;6.070;2024-03-07T05:29:07;3.67;118.99
67748;HTU21D;54543;50.712;6.070;2024-03-07T05:31:37;3.69;118.99
67748;HTU21D;54543;50.712;6.070;2024-03-07T05:34:04;3.69;118.99
67748;HTU21D;54543;50.712;6.070;2024-03-07T05:36:34;3.73;118.99
67748;HTU21D;54543;50.712;6.070;2024-03-07T05:39:00;3.73;118.99
67748;HTU21D;54543;50.712;6.070;2024-03-07T05:41:28;3.73;118.99
67748;HTU21D;54543;50.712;6.070;2024-03-07T05:43:55;3.73;118.99
67748;HTU21D;54543;50.712;6.070;2024-03-07T05:46:22;3.72;118.99
67748;HTU21D;54543;50.712;6.070;2024-03-07T05:48:47;3.71;118.99
67748;HTU21D;54543;50.712;6.070;2024-03-07T05:51:18;3.71;118.99
67748;HTU21D;54543;50.712;6.070;2024-03-07T05:53:43;3.69;118.99
67748;HTU21D;54543;50.712;6.070;2024-03-07T05:56:09;3.68;118.99
67748;HTU21D;54543;50.712;6.070;2024-03-07T05:58:34;3.65;118.99
67748;HTU21D;54543;50.712;6.070;2024-03-07T06:01:00;3.65;118.99
67748;HTU21D;54543;50.712;6.070;2024-03-07T06:03:26;3.62;118.99
67748;HTU21D;54543;50.712;6.070;2024-03-07T06:05:51;3.62;118.99
67748;HTU21D;54543;50.712;6.070;2024-03-07T06:08:18;3.61;118.99
67748;HTU21D;54543;50.712;6.070;2024-03-07T06:10:44;3.61;118.99
67748;HTU21D;54543;50.712;6.070;2024-03-07T06:13:11;3.60;118.99
67748;HTU21D;54543;50.712;6.070;2024-03-07T06:15:39;3.57;118.99
67748;HTU21D;54543;50.712;6.070;2024-03-07T06:18:07;3.55;118.99
67748;HTU21D;54543;50.712;6.070;2024-03-07T06:20:42;3.54;118.99
67748;HTU21D;54543;50.712;6.070;2024-03-07T06:23:09;3.54;118.99
67748;HTU21D;54543;50.712;6.070;2024-03-07T06:25:37;3.53;118.99
67748;HTU21D;54543;50.712;6.070;2024-03-07T06:28:12;3.50;118.99
67748;HTU21D;54543;50.712;6.070;2024-03-07T06:30:39;3.50;118.99
67748;HTU21D;54543;50.712;6.070;2024-03-07T06:33:05;3.48;118.99
67748;HTU21D;54543;50.712;6.070;2024-03-07T06:35:34;3.52;118.99
67748;HTU21D;54543;50.712;6.070;2024-03-07T06:38:11;3.52;118.99
67748;HTU21D;54543;50.712;6.070;2024-03-07T06:40:37;3.55;118.99
67748;HTU21D;54543;50.712;6.070;2024-03-07T06:43:03;3.57;118.99
67748;HTU21D;54543;50.712;6.070;2024-03-07T06:45:30;3.61;118.99
67748;HTU21D;54543;50.712;6.070;2024-03-07T06:47:58;3.63;118.99
67748;HTU21D;54543;50.712;6.070;2024-03-07T06:50:24;3.67;118.99
67748;HTU21D;54543;50.712;6.070;2024-03-07T06:52:52;3.71;118.99
67748;HTU21D;54543;50.712;6.070;2024-03-07T06:55:19;3.75;118.99
67748;HTU21D;54543;50.712;6.070;2024-03-07T06:57:45;3.80;118.99
67748;HTU21D;54543;50.712;6.070;2024-03-07T07:00:14;3.85;118.99
67748;HTU21D;54543;50.712;6.070;2024-03-07T07:02:52;3.92;118.99
67748;HTU21D;54543;50.712;6.070;2024-03-07T07:05:24;3.99;118.99
67748;HTU21D;54543;50.712;6.070;2024-03-07T07:07:52;4.03;118.99
67748;HTU21D;54543;50.712;6.070;2024-03-07T07:10:19;4.09;118.99
67748;HTU21D;54543;50.712;6.070;2024-03-07T07:12:50;4.17;118.99
67748;HTU21D;54543;50.712;6.070;2024-03-07T07:15:17;4.22;118.99
67748;HTU21D;54543;50.712;6.070;2024-03-07T07:17:44;4.28;118.99
67748;HTU21D;54543;50.712;6.070;2024-03-07T07:20:14;4.33;118.99
67748;HTU21D;54543;50.712;6.070;2024-03-07T07:22:49;4.38;118.99
67748;HTU21D;54543;50.712;6.070;2024-03-07T07:25:15;4.43;118.99
67748;HTU21D;54543;50.712;6.070;2024-03-07T07:27:46;4.50;118.99
67748;HTU21D;54543;50.712;6.070;2024-03-07T07:30:19;4.56;118.99
67748;HTU21D;54543;50.712;6.070;2024-03-07T07:32:47;4.62;118.99
67748;HTU21D;54543;50.712;6.070;2024-03-07T07:35:15;4.65;118.99
67748;HTU21D;54543;50.712;6.070;2024-03-07T07:37:47;4.72;118.99
67748;HTU21D;54543;50.712;6.070;2024-03-07T07:40:18;4.79;118.99
67748;HTU21D;54543;50.712;6.070;2024-03-07T07:42:53;4.88;118.99
67748;HTU21D;54543;50.712;6.070;2024-03-07T07:45:24;4.96;118.99
67748;HTU21D;54543;50.712;6.070;2024-03-07T07:47:55;5.05;118.99
67748;HTU21D;54543;50.712;6.070;2024-03-07T07:50:23;5.13;118.99
67748;HTU21D;54543;50.712;6.070;2024-03-07T07:52:55;5.22;118.99
67748;HTU21D;54543;50.712;6.070;2024-03-07T07:55:31;5.31;118.99
67748;HTU21D;54543;50.712;6.070;2024-03-07T07:58:00;5.39;118.99
67748;HTU21D;54543;50.712;6.070;2024-03-07T08:00:40;5.50;118.99
67748;HTU21D;54543;50.712;6.070;2024-03-07T08:03:11;5.60;118.99
67748;HTU21D;54543;50.712;6.070;2024-03-07T08:05:40;5.67;118.99
67748;HTU21D;54543;50.712;6.070;2024-03-07T08:08:08;5.79;118.99
67748;HTU21D;54543;50.712;6.070;2024-03-07T08:10:38;5.89;118.99
67748;HTU21D;54543;50.712;6.070;2024-03-07T08:13:07;5.99;118.99
67748;HTU21D;54543;50.712;6.070;2024-03-07T08:15:39;6.10;118.99
67748;HTU21D;54543;50.712;6.070;2024-03-07T08:18:08;6.21;118.99
67748;HTU21D;54543;50.712;6.070;2024-03-07T08:20:36;6.30;118.99
67748;HTU21D;54543;50.712;6.070;2024-03-07T08:23:08;6.40;118.99
67748;HTU21D;54543;50.712;6.070;2024-03-07T08:25:37;6.50;118.99
67748;HTU21D;54543;50.712;6.070;2024-03-07T08:28:10;6.63;118.99
67748;HTU21D;54543;50.712;6.070;2024-03-07T08:30:39;6.75;118.99
67748;HTU21D;54543;50.712;6.070;2024-03-07T08:33:07;6.87;118.99
67748;HTU21D;54543;50.712;6.070;2024-03-07T08:35:36;6.98;118.99
67748;HTU21D;54543;50.712;6.070;2024-03-07T08:38:04;7.10;118.99
67748;HTU21D;54543;50.712;6.070;2024-03-07T08:40:31;7.22;118.99
67748;HTU21D;54543;50.712;6.070;2024-03-07T08:43:03;7.31;118.99
67748;HTU21D;54543;50.712;6.070;2024-03-07T08:45:32;7.41;118.99
67748;HTU21D;54543;50.712;6.070;2024-03-07T08:48:04;7.50;118.99
67748;HTU21D;54543;50.712;6.070;2024-03-07T08:50:29;7.60;118.99
67748;HTU21D;54543;50.712;6.070;2024-03-07T08:52:55;7.72;118.99
67748;HTU21D;54543;50.712;6.070;2024-03-07T08:55:25;7.81;118.99
67748;HTU21D;54543;50.712;6.070;2024-03-07T08:57:53;7.87;118.99
67748;HTU21D;54543;50.712;6.070;2024-03-07T09:00:22;7.96;118.99
67748;HTU21D;54543;50.712;6.070;2024-03-07T09:02:59;8.04;118.99
67748;HTU21D;54543;50.712;6.070;2024-03-07T09:05:25;8.08;118.92
67748;HTU21D;54543;50.712;6.070;2024-03-07T09:07:54;8.13;117.76
67748;HTU21D;54543;50.712;6.070;2024-03-07T09:10:22;8.22;117.74
67748;HTU21D;54543;50.712;6.070;2024-03-07T09:12:52;8.32;115.65
67748;HTU21D;54543;50.712;6.070;2024-03-07T09:15:21;8.43;115.35
67748;HTU21D;54543;50.712;6.070;2024-03-07T09:17:52;8.49;108.98
67748;HTU21D;54543;50.712;6.070;2024-03-07T09:20:24;8.46;109.74
67748;HTU21D;54543;50.712;6.070;2024-03-07T09:22:49;8.51;112.22
67748;HTU21D;54543;50.712;6.070;2024-03-07T09:25:19;8.60;112.53
67748;HTU21D;54543;50.712;6.070;2024-03-07T09:27:50;8.72;106.53
67748;HTU21D;54543;50.712;6.070;2024-03-07T09:30:22;8.79;108.30
67748;HTU21D;54543;50.712;6.070;2024-03-07T09:32:57;8.83;108.33
67748;HTU21D;54543;50.712;6.070;2024-03-07T09:35:25;8.79;89.18
67748;HTU21D;54543;50.712;6.070;2024-03-07T09:37:57;8.71;104.24
67748;HTU21D;54543;50.712;6.070;2024-03-07T09:40:26;8.67;108.56
67748;HTU21D;54543;50.712;6.070;2024-03-07T09:42:55;8.71;112.06
67748;HTU21D;54543;50.712;6.070;2024-03-07T09:45:22;8.70;103.74
67748;HTU21D;54543;50.712;6.070;2024-03-07T09:47:50;8.62;109.27
67748;HTU21D;54543;50.712;6.070;2024-03-07T09:50:17;8.63;110.28
67748;HTU21D;54543;50.712;6.070;2024-03-07T09:52:53;8.77;106.67
67748;HTU21D;54543;50.712;6.070;2024-03-07T09:55:19;8.90;104.05
67748;HTU21D;54543;50.712;6.070;2024-03-07T09:57:50;8.96;103.19
67748;HTU21D;54543;50.712;6.070;2024-03-07T10:00:20;9.06;101.42
67748;HTU21D;54543;50.712;6.070;2024-03-07T10:03:05;9.20;96.21
67748;HTU21D;54543;50.712;6.070;2024-03-07T10:05:38;9.16;98.70
67748;HTU21D;54543;50.712;6.070;2024-03-07T10:08:04;9.15;102.43
67748;HTU21D;54543;50.712;6.070;2024-03-07T10:10:31;9.25;102.07
67748;HTU21D;54543;50.712;6.070;2024-03-07T10:12:57;9.35;103.93
67748;HTU21D;54543;50.712;6.070;2024-03-07T10:15:30;9.53;98.79
67748;HTU21D;54543;50.712;6.070;2024-03-07T10:18:02;9.75;98.35
67748;HTU21D;54543;50.712;6.070;2024-03-07T10:20:28;9.99;101.48
67748;HTU21D;54543;50.712;6.070;2024-03-07T10:22:53;10.20;98.81
67748;HTU21D;54543;50.712;6.070;2024-03-07T10:25:22;10.40;96.63
67748;HTU21D;54543;50.712;6.070;2024-03-07T10:27:50;10.63;97.74
67748;HTU21D;54543;50.712;6.070;2024-03-07T10:30:19;10.79;92.73
67748;HTU21D;54543;50.712;6.070;2024-03-07T10:32:52;10.82;88.27
67748;HTU21D;54543;50.712;6.070;2024-03-07T10:35:26;10.58;74.11
67748;HTU21D;54543;50.712;6.070;2024-03-07T10:37:57;10.41;76.82
67748;HTU21D;54543;50.712;6.070;2024-03-07T10:40:34;10.16;91.37
67748;HTU21D;54543;50.712;6.070;2024-03-07T10:43:12;9.92;88.41
67748;HTU21D;54543;50.712;6.070;2024-03-07T10:45:46;9.66;91.42
67748;HTU21D;54543;50.712;6.070;2024-03-07T10:48:12;9.48;91.79
67748;HTU21D;54543;50.712;6.070;2024-03-07T10:51:04;9.26;82.03
67748;HTU21D;54543;50.712;6.070;2024-03-07T10:54:20;9.32;96.14
67748;HTU21D;54543;50.712;6.070;2024-03-07T10:56:52;9.68;90.88
67748;HTU21D;54543;50.712;6.070;2024-03-07T10:59:26;10.11;93.34
67748;HTU21D;54543;50.712;6.070;2024-03-07T11:02:37;10.33;81.33
67748;HTU21D;54543;50.712;6.070;2024-03-07T11:05:00;10.46;93.27
67748;HTU21D;54543;50.712;6.070;2024-03-07T11:07:25;10.68;90.88
67748;HTU21D;54543;50.712;6.070;2024-03-07T11:09:54;10.77;82.94
67748;HTU21D;54543;50.712;6.070;2024-03-07T11:12:27;10.83;76.89
67748;HTU21D;54543;50.712;6.070;2024-03-07T11:14:54;11.03;89.09
67748;HTU21D;54543;50.712;6.070;2024-03-07T11:17:28;11.30;80.63
67748;HTU21D;54543;50.712;6.070;2024-03-07T11:20:21;11.40;69.61
67748;HTU21D;54543;50.712;6.070;2024-03-07T11:22:50;11.44;80.82
67748;HTU21D;54543;50.712;6.070;2024-03-07T11:25:20;11.54;81.89
67748;HTU21D;54543;50.712;6.070;2024-03-07T11:27:55;11.62;82.68
67748;HTU21D;54543;50.712;6.070;2024-03-07T11:30:23;11.77;80.20
67748;HTU21D;54543;50.712;6.070;2024-03-07T11:32:54;11.88;81.65
67748;HTU21D;54543;50.712;6.070;2024-03-07T11:35:20;11.90;81.49
67748;HTU21D;54543;50.712;6.070;2024-03-07T11:38:00;11.81;74.21
67748;HTU21D;54543;50.712;6.070;2024-03-07T11:43:00;11.29;67.62
67748;HTU21D;54543;50.712;6.070;2024-03-07T11:45:31;11.18;78.49
67748;HTU21D;54543;50.712;6.070;2024-03-07T11:48:10;11.18;79.81
67748;HTU21D;54543;50.712;6.070;2024-03-07T11:50:37;11.09;78.66
67748;HTU21D;54543;50.712;6.070;2024-03-07T11:53:04;11.00;77.66
67748;HTU21D;54543;50.712;6.070;2024-03-07T11:55:36;11.01;78.52
67748;HTU21D;54543;50.712;6.070;2024-03-07T11:58:18;11.08;76.06
67748;HTU21D;54543;50.712;6.070;2024-03-07T12:00:49;11.17;81.17
67748;HTU21D;54543;50.712;6.070;2024-03-07T12:03:20;11.12;71.64
67748;HTU21D;54543;50.712;6.070;2024-03-07T12:05:51;11.10;78.98
67748;HTU21D;54543;50.712;6.070;2024-03-07T12:08:18;11.15;80.47
67748;HTU21D;54543;50.712;6.070;2024-03-07T12:10:44;11.24;68.34
67748;HTU21D;54543;50.712;6.070;2024-03-07T12:13:11;11.26;73.69
67748;HTU21D;54543;50.712;6.070;2024-03-07T12:15:38;11.24;77.26
67748;HTU21D;54543;50.712;6.070;2024-03-07T12:18:05;11.28;76.90
67748;HTU21D;54543;50.712;6.070;2024-03-07T12:20:41;11.37;80.69
67748;HTU21D;54543;50.712;6.070;2024-03-07T12:23:07;11.49;81.62
67748;HTU21D;54543;50.712;6.070;2024-03-07T12:25:43;11.64;76.81
67748;HTU21D;54543;50.712;6.070;2024-03-07T12:28:10;11.67;76.98
67748;HTU21D;54543;50.712;6.070;2024-03-07T12:30:49;11.68;70.76
67748;HTU21D;54543;50.712;6.070;2024-03-07T12:33:17;11.79;76.60
67748;HTU21D;54543;50.712;6.070;2024-03-07T12:35:49;11.85;78.82
67748;HTU21D;54543;50.712;6.070;2024-03-07T12:38:20;11.82;75.94
67748;HTU21D;54543;50.712;6.070;2024-03-07T12:41:05;11.83;76.36
67748;HTU21D;54543;50.712;6.070;2024-03-07T12:43:40;11.86;71.02
67748;HTU21D;54543;50.712;6.070;2024-03-07T12:46:10;11.83;74.64
67748;HTU21D;54543;50.712;6.070;2024-03-07T12:48:37;11.91;69.63
67748;HTU21D;54543;50.712;6.070;2024-03-07T12:51:04;11.93;69.96
67748;HTU21D;54543;50.712;6.070;2024-03-07T12:53:30;11.92;76.38
67748;HTU21D;54543;50.712;6.070;2024-03-07T12:55:57;12.03;75.28
67748;HTU21D;54543;50.712;6.070;2024-03-07T12:58:23;12.13;71.90
67748;HTU21D;54543;50.712;6.070;2024-03-07T13:00:52;12.16;74.84
67748;HTU21D;54543;50.712;6.070;2024-03-07T13:03:18;12.22;64.27
67748;HTU21D;54543;50.712;6.070;2024-03-07T13:05:43;12.16;69.77
67748;HTU21D;54543;50.712;6.070;2024-03-07T13:08:10;12.08;69.61
67748;HTU21D;54543;50.712;6.070;2024-03-07T13:10:42;11.98;68.81
67748;HTU21D;54543;50.712;6.070;2024-03-07T13:13:08;11.86;69.83
67748;HTU21D;54543;50.712;6.070;2024-03-07T13:15:40;11.88;72.97
67748;HTU21D;54543;50.712;6.070;2024-03-07T13:18:08;11.92;70.20
67748;HTU21D;54543;50.712;6.070;2024-03-07T13:20:35;11.97;70.98
67748;HTU21D;54543;50.712;6.070;2024-03-07T13:23:02;12.04;70.95
67748;HTU21D;54543;50.712;6.070;2024-03-07T13:25:28;12.17;68.75
67748;HTU21D;54543;50.712;6.070;2024-03-07T13:30:25;12.30;65.82
67748;HTU21D;54543;50.712;6.070;2024-03-07T13:32:57;12.27;63.24
67748;HTU21D;54543;50.712;6.070;2024-03-07T13:35:24;12.18;68.04
67748;HTU21D;54543;50.712;6.070;2024-03-07T13:37:52;12.14;60.48
67748;HTU21D;54543;50.712;6.070;2024-03-07T13:40:21;12.17;68.94
67748;HTU21D;54543;50.712;6.070;2024-03-07T13:45:27;12.22;66.00
67748;HTU21D;54543;50.712;6.070;2024-03-07T13:47:54;12.31;70.58
67748;HTU21D;54543;50.712;6.070;2024-03-07T13:50:22;12.38;71.90
67748;HTU21D;54543;50.712;6.070;2024-03-07T13:52:53;12.30;60.61
67748;HTU21D;54543;50.712;6.070;2024-03-07T14:05:08;12.60;63.47
67748;HTU21D;54543;50.712;6.070;2024-03-07T14:27:15;12.57;61.56
67748;HTU21D;54543;50.712;6.070;2024-03-07T14:32:29;12.42;69.14
67748;HTU21D;54543;50.712;6.070;2024-03-07T14:35:18;12.27;67.99
67748;HTU21D;54543;50.712;6.070;2024-03-07T14:38:26;12.22;67.64
67748;HTU21D;54543;50.712;6.070;2024-03-07T14:40:52;12.28;71.84
67748;HTU21D;54543;50.712;6.070;2024-03-07T14:43:20;12.28;60.25
67748;HTU21D;54543;50.712;6.070;2024-03-07T14:45:46;12.16;70.65
67748;HTU21D;54543;50.712;6.070;2024-03-07T14:48:16;12.03;66.40
67748;HTU21D;54543;50.712;6.070;2024-03-07T14:50:43;12.00;69.71
67748;HTU21D;54543;50.712;6.070;2024-03-07T14:53:11;12.02;72.46
67748;HTU21D;54543;50.712;6.070;2024-03-07T14:55:39;12.11;65.51
67748;HTU21D;54543;50.712;6.070;2024-03-07T14:58:06;12.16;67.93
67748;HTU21D;54543;50.712;6.070;2024-03-07T15:00:39;12.26;69.07
67748;HTU21D;54543;50.712;6.070;2024-03-07T15:03:13;12.47;64.88
67748;HTU21D;54543;50.712;6.070;2024-03-07T15:05:43;12.72;72.48
67748;HTU21D;54543;50.712;6.070;2024-03-07T15:08:16;13.10;72.54
67748;HTU21D;54543;50.712;6.070;2024-03-07T15:10:48;13.27;70.90
67748;HTU21D;54543;50.712;6.070;2024-03-07T15:13:15;13.34;67.75
67748;HTU21D;54543;50.712;6.070;2024-03-07T15:15:42;13.11;66.90
67748;HTU21D;54543;50.712;6.070;2024-03-07T15:18:09;12.69;60.98
67748;HTU21D;54543;50.712;6.070;2024-03-07T15:20:36;12.40;70.61
67748;HTU21D;54543;50.712;6.070;2024-03-07T15:23:02;12.21;70.16
67748;HTU21D;54543;50.712;6.070;2024-03-07T15:25:34;12.10;69.68
67748;HTU21D;54543;50.712;6.070;2024-03-07T15:27:59;11.93;68.43
67748;HTU21D;54543;50.712;6.070;2024-03-07T15:30:26;11.88;72.49
67748;HTU21D;54543;50.712;6.070;2024-03-07T15:33:00;12.12;73.99
67748;HTU21D;54543;50.712;6.070;2024-03-07T15:35:26;12.42;76.42
67748;HTU21D;54543;50.712;6.070;2024-03-07T15:37:52;12.82;75.67
67748;HTU21D;54543;50.712;6.070;2024-03-07T15:40:19;13.18;76.18
67748;HTU21D;54543;50.712;6.070;2024-03-07T15:42:50;13.47;67.91
67748;HTU21D;54543;50.712;6.070;2024-03-07T15:45:22;13.58;66.69
67748;HTU21D;54543;50.712;6.070;2024-03-07T15:47:51;13.68;72.25
67748;HTU21D;54543;50.712;6.070;2024-03-07T15:50:17;13.82;70.79
67748;HTU21D;54543;50.712;6.070;2024-03-07T15:52:51;13.82;59.61
67748;HTU21D;54543;50.712;6.070;2024-03-07T15:55:19;13.68;55.81
67748;HTU21D;54543;50.712;6.070;2024-03-07T15:57:56;13.38;61.16
67748;HTU21D;54543;50.712;6.070;2024-03-07T16:00:26;13.12;66.36
67748;HTU21D;54543;50.712;6.070;2024-03-07T16:05:27;12.66;67.39
67748;HTU21D;54543;50.712;6.070;2024-03-07T16:07:57;12.42;64.89
67748;HTU21D;54543;50.712;6.070;2024-03-07T16:10:27;12.06;68.62